Johnsonburg, PA

7:40 AM EDT on September 03, 2015 (GMT -0400)
Grassy Road | | Change Station
CLOSE
Current Station
Personal Weather Station
Location: Johnsonburg, PA
Elevation: 1516 ft
Nearby Weather Stations

Elev 1516 ft 41.48 °N, 78.68 °W | Updated 2 minutes ago

Fog
Fog
63.1 °F
Feels Like 63.1 °F
N
0.0
Wind Variable Wind from SSW

Today
High -- | Low -- °F
--% Chance of Precip.
Yesterday
High -- | Low -- °F
Precip. -- in
6:42 AM 7:44 PM
Waning Gibbous, 71% visible
Pressure 30.04 in
Visibility 0.2 miles
Clouds
Dew Point 63 °F
Humidity 99%
Rainfall 0.00 in
Snow Depth Not available.
UV Not available.
Pollen 10.10 out of 12
Air Quality Not available.
Flu Activity Not available.
SPECI KBFD 031128Z AUTO 00000KT M1/4SM FG VV003 13/13 A3004 RMK AO2 T01330128
Pressure 30.04 in
Visibility 0.2 miles
Clouds
Dew Point 63 °F
Humidity 99%
Rainfall 0.00 in
Snow Depth Not available.
UV Not available.
Pollen 10.10 out of 12
Air Quality Not available.
Flu Activity Not available.
SPECI KBFD 031128Z AUTO 00000KT M1/4SM FG VV003 13/13 A3004 RMK AO2 T01330128

10-Day Weather Forecast

×

Almanac

Astronomy

Sep. 03, 2015 Rise Set
Actual Time
Civil Twilight
Nautical Twilight
Astronomical Twilight
Moon
Length of Visible Light
Length of Day
Tomorrow will be .
, % of the Moon is Illuminated

Today's Extremes

State Highs State Lows

Community

WunderPhotos

Upload Photos

1,851,941 photos uploaded!

WunderBlogs® & News

Nearby

Air Quality

  Air Quality AQ Index Pollutant
Not available.

Snow Depth

Station Depth Elevation

Earthquake Activity

City Distance Mag. Time & Date
Minimum magnitude displayed is 2.5.

Coastal Water Temperatures

Place Temperature

Stations

Nearby Weather Stations

Station Location Temp. Windchill Dew Point Humidity Wind Precip. Elev Updated Type